sensor_id;sensor_type;location;lat;lon;timestamp;pressure;altitude;pressure_sealevel;temperature;humidity
64713;BME280;51140;45.340;5.980;2023-04-01T00:00:23;98081.34;;;8.01;100.00
64713;BME280;51140;45.340;5.980;2023-04-01T00:02:49;98050.97;;;8.03;100.00
64713;BME280;51140;45.340;5.980;2023-04-01T00:05:15;98011.59;;;8.14;100.00
64713;BME280;51140;45.340;5.980;2023-04-01T00:07:41;97945.81;;;8.15;100.00
64713;BME280;51140;45.340;5.980;2023-04-01T00:10:08;97888.75;;;8.15;100.00
64713;BME280;51140;45.340;5.980;2023-04-01T00:12:35;97831.81;;;8.12;100.00
64713;BME280;51140;45.340;5.980;2023-04-01T00:15:01;97788.16;;;8.39;100.00
64713;BME280;51140;45.340;5.980;2023-04-01T00:17:27;97699.91;;;8.39;100.00
64713;BME280;51140;45.340;5.980;2023-04-01T00:19:56;97635.84;;;8.39;100.00
64713;BME280;51140;45.340;5.980;2023-04-01T00:22:23;97586.72;;;8.36;100.00
64713;BME280;51140;45.340;5.980;2023-04-01T00:24:49;97546.41;;;8.46;100.00
64713;BME280;51140;45.340;5.980;2023-04-01T00:27:14;97533.66;;;8.42;100.00
64713;BME280;51140;45.340;5.980;2023-04-01T00:29:45;97514.25;;;8.49;100.00
64713;BME280;51140;45.340;5.980;2023-04-01T00:32:11;97501.88;;;8.54;100.00
64713;BME280;51140;45.340;5.980;2023-04-01T00:34:36;97480.50;;;8.49;100.00
64713;BME280;51140;45.340;5.980;2023-04-01T00:37:03;97461.34;;;8.52;100.00
64713;BME280;51140;45.340;5.980;2023-04-01T00:39:29;97446.84;;;8.47;100.00
64713;BME280;51140;45.340;5.980;2023-04-01T00:41:55;97434.81;;;8.29;100.00
64713;BME280;51140;45.340;5.980;2023-04-01T00:44:24;97453.13;;;8.10;100.00
64713;BME280;51140;45.340;5.980;2023-04-01T00:46:51;97487.03;;;8.07;100.00
64713;BME280;51140;45.340;5.980;2023-04-01T00:49:19;97517.38;;;8.05;100.00
64713;BME280;51140;45.340;5.980;2023-04-01T00:51:46;97548.69;;;8.02;100.00
64713;BME280;51140;45.340;5.980;2023-04-01T00:54:14;97577.88;;;7.89;100.00
64713;BME280;51140;45.340;5.980;2023-04-01T00:57:00;97626.53;;;7.83;100.00
64713;BME280;51140;45.340;5.980;2023-04-01T00:59:29;97642.47;;;7.76;100.00
64713;BME280;51140;45.340;5.980;2023-04-01T01:01:56;97682.66;;;7.84;100.00
64713;BME280;51140;45.340;5.980;2023-04-01T01:04:23;97695.13;;;7.95;100.00
64713;BME280;51140;45.340;5.980;2023-04-01T01:10:19;97727.66;;;8.02;100.00
64713;BME280;51140;45.340;5.980;2023-04-01T01:12:51;97738.94;;;8.01;100.00
64713;BME280;51140;45.340;5.980;2023-04-01T01:31:36;97901.38;;;7.65;100.00
64713;BME280;51140;45.340;5.980;2023-04-01T01:37:01;97944.69;;;7.63;100.00
64713;BME280;51140;45.340;5.980;2023-04-01T01:39:31;97976.56;;;7.65;100.00
64713;BME280;51140;45.340;5.980;2023-04-01T01:42:01;98004.94;;;7.68;100.00
64713;BME280;51140;45.340;5.980;2023-04-01T01:44:29;98046.31;;;7.71;100.00
64713;BME280;51140;45.340;5.980;2023-04-01T01:46:56;98070.94;;;7.61;100.00
64713;BME280;51140;45.340;5.980;2023-04-01T01:49:23;98085.16;;;7.50;100.00
64713;BME280;51140;45.340;5.980;2023-04-01T01:51:50;98112.75;;;7.51;100.00
64713;BME280;51140;45.340;5.980;2023-04-01T01:54:16;98117.81;;;7.54;100.00
64713;BME280;51140;45.340;5.980;2023-04-01T01:56:45;98103.81;;;7.59;100.00
64713;BME280;51140;45.340;5.980;2023-04-01T01:59:12;98101.84;;;7.65;100.00
64713;BME280;51140;45.340;5.980;2023-04-01T02:01:42;98113.91;;;7.66;100.00
64713;BME280;51140;45.340;5.980;2023-04-01T02:04:11;98122.34;;;7.71;100.00
64713;BME280;51140;45.340;5.980;2023-04-01T02:06:39;98121.56;;;7.69;100.00
64713;BME280;51140;45.340;5.980;2023-04-01T02:09:08;98148.19;;;7.73;100.00
64713;BME280;51140;45.340;5.980;2023-04-01T02:11:53;98167.00;;;7.56;100.00
64713;BME280;51140;45.340;5.980;2023-04-01T02:14:40;98171.59;;;7.49;100.00
64713;BME280;51140;45.340;5.980;2023-04-01T02:17:14;98166.63;;;7.43;100.00
64713;BME280;51140;45.340;5.980;2023-04-01T02:19:47;98134.66;;;7.66;100.00
64713;BME280;51140;45.340;5.980;2023-04-01T02:22:18;98129.03;;;7.77;100.00
64713;BME280;51140;45.340;5.980;2023-04-01T02:24:45;98117.75;;;7.78;100.00
64713;BME280;51140;45.340;5.980;2023-04-01T02:27:11;98130.72;;;7.78;100.00
64713;BME280;51140;45.340;5.980;2023-04-01T02:29:37;98138.94;;;7.67;100.00
64713;BME280;51140;45.340;5.980;2023-04-01T02:32:04;98121.13;;;7.58;100.00
64713;BME280;51140;45.340;5.980;2023-04-01T02:34:30;98134.94;;;7.59;100.00
64713;BME280;51140;45.340;5.980;2023-04-01T02:36:56;98135.19;;;7.74;100.00
64713;BME280;51140;45.340;5.980;2023-04-01T02:39:22;98104.66;;;7.59;100.00
64713;BME280;51140;45.340;5.980;2023-04-01T02:41:48;98088.25;;;7.59;100.00
64713;BME280;51140;45.340;5.980;2023-04-01T02:44:15;98081.94;;;7.66;100.00
64713;BME280;51140;45.340;5.980;2023-04-01T02:46:40;98074.50;;;7.78;100.00
64713;BME280;51140;45.340;5.980;2023-04-01T02:49:06;98070.59;;;7.89;100.00
64713;BME280;51140;45.340;5.980;2023-04-01T02:51:32;98060.69;;;7.78;100.00
64713;BME280;51140;45.340;5.980;2023-04-01T02:53:57;98040.09;;;7.75;100.00
64713;BME280;51140;45.340;5.980;2023-04-01T02:56:23;98029.97;;;7.89;100.00
64713;BME280;51140;45.340;5.980;2023-04-01T02:58:48;98028.78;;;7.96;100.00
64713;BME280;51140;45.340;5.980;2023-04-01T03:01:14;98015.81;;;7.96;100.00
64713;BME280;51140;45.340;5.980;2023-04-01T03:03:39;98005.72;;;7.90;100.00
64713;BME280;51140;45.340;5.980;2023-04-01T03:06:10;98007.38;;;7.91;100.00
64713;BME280;51140;45.340;5.980;2023-04-01T03:08:36;97987.47;;;7.92;100.00
64713;BME280;51140;45.340;5.980;2023-04-01T03:11:01;97970.56;;;7.83;100.00
64713;BME280;51140;45.340;5.980;2023-04-01T03:13:27;97945.91;;;7.93;100.00
64713;BME280;51140;45.340;5.980;2023-04-01T03:15:52;97943.81;;;7.82;100.00
64713;BME280;51140;45.340;5.980;2023-04-01T03:18:18;97948.66;;;7.90;100.00
64713;BME280;51140;45.340;5.980;2023-04-01T03:20:43;97948.50;;;7.93;100.00
64713;BME280;51140;45.340;5.980;2023-04-01T03:23:09;97946.81;;;7.92;100.00
64713;BME280;51140;45.340;5.980;2023-04-01T03:25:34;97944.16;;;7.94;100.00
64713;BME280;51140;45.340;5.980;2023-04-01T03:28:00;97930.56;;;7.89;100.00
64713;BME280;51140;45.340;5.980;2023-04-01T03:30:26;97921.16;;;7.86;100.00
64713;BME280;51140;45.340;5.980;2023-04-01T03:32:52;97931.47;;;7.88;100.00
64713;BME280;51140;45.340;5.980;2023-04-01T03:35:17;97931.41;;;7.89;100.00
64713;BME280;51140;45.340;5.980;2023-04-01T03:37:43;97926.28;;;7.88;100.00
64713;BME280;51140;45.340;5.980;2023-04-01T03:40:09;97909.47;;;7.77;100.00
64713;BME280;51140;45.340;5.980;2023-04-01T03:42:34;97912.31;;;7.71;100.00
64713;BME280;51140;45.340;5.980;2023-04-01T03:45:00;97916.47;;;7.75;100.00
64713;BME280;51140;45.340;5.980;2023-04-01T03:47:26;97918.91;;;7.78;100.00
64713;BME280;51140;45.340;5.980;2023-04-01T03:49:51;97914.56;;;7.79;100.00
64713;BME280;51140;45.340;5.980;2023-04-01T03:52:16;97894.09;;;7.73;100.00
64713;BME280;51140;45.340;5.980;2023-04-01T03:54:42;97887.09;;;7.75;100.00
64713;BME280;51140;45.340;5.980;2023-04-01T03:57:07;97885.28;;;7.77;100.00
64713;BME280;51140;45.340;5.980;2023-04-01T03:59:33;97894.81;;;7.76;100.00
64713;BME280;51140;45.340;5.980;2023-04-01T04:01:59;97885.84;;;7.65;100.00
64713;BME280;51140;45.340;5.980;2023-04-01T04:04:25;97874.75;;;7.61;100.00
64713;BME280;51140;45.340;5.980;2023-04-01T04:06:51;97891.19;;;7.60;100.00
64713;BME280;51140;45.340;5.980;2023-04-01T04:09:16;97898.03;;;7.63;100.00
64713;BME280;51140;45.340;5.980;2023-04-01T04:11:42;97915.13;;;7.67;100.00
64713;BME280;51140;45.340;5.980;2023-04-01T04:14:07;97932.50;;;7.65;100.00
64713;BME280;51140;45.340;5.980;2023-04-01T04:16:34;97932.44;;;7.66;100.00
64713;BME280;51140;45.340;5.980;2023-04-01T04:19:02;97938.66;;;7.62;100.00
64713;BME280;51140;45.340;5.980;2023-04-01T04:21:27;97951.41;;;7.67;100.00
64713;BME280;51140;45.340;5.980;2023-04-01T04:23:53;97961.19;;;7.60;100.00
64713;BME280;51140;45.340;5.980;2023-04-01T04:26:18;97971.38;;;7.65;100.00
64713;BME280;51140;45.340;5.980;2023-04-01T04:28:43;97991.00;;;7.70;100.00
64713;BME280;51140;45.340;5.980;2023-04-01T04:31:09;97996.63;;;7.60;100.00
64713;BME280;51140;45.340;5.980;2023-04-01T04:33:35;97989.53;;;7.65;100.00
64713;BME280;51140;45.340;5.980;2023-04-01T04:36:01;97982.41;;;7.70;100.00
64713;BME280;51140;45.340;5.980;2023-04-01T04:38:27;98012.34;;;7.77;100.00
64713;BME280;51140;45.340;5.980;2023-04-01T04:40:53;98054.84;;;7.73;100.00
64713;BME280;51140;45.340;5.980;2023-04-01T04:43:19;98085.06;;;7.74;100.00
64713;BME280;51140;45.340;5.980;2023-04-01T04:45:44;98098.03;;;7.74;100.00
64713;BME280;51140;45.340;5.980;2023-04-01T04:48:11;98103.81;;;7.59;100.00
64713;BME280;51140;45.340;5.980;2023-04-01T04:50:47;98100.69;;;7.50;100.00
64713;BME280;51140;45.340;5.980;2023-04-01T04:53:14;98100.38;;;7.58;100.00
64713;BME280;51140;45.340;5.980;2023-04-01T04:55:45;98102.63;;;7.67;100.00
64713;BME280;51140;45.340;5.980;2023-04-01T04:58:11;98121.88;;;7.62;100.00
64713;BME280;51140;45.340;5.980;2023-04-01T05:00:36;98131.34;;;7.63;100.00
64713;BME280;51140;45.340;5.980;2023-04-01T05:03:01;98154.28;;;7.72;100.00
64713;BME280;51140;45.340;5.980;2023-04-01T05:05:27;98173.47;;;7.68;100.00
64713;BME280;51140;45.340;5.980;2023-04-01T05:07:52;98198.38;;;7.72;100.00
64713;BME280;51140;45.340;5.980;2023-04-01T05:10:17;98219.19;;;7.70;100.00
64713;BME280;51140;45.340;5.980;2023-04-01T05:12:43;98240.72;;;7.72;100.00
64713;BME280;51140;45.340;5.980;2023-04-01T05:15:08;98245.72;;;7.77;100.00
64713;BME280;51140;45.340;5.980;2023-04-01T05:17:34;98242.13;;;7.58;100.00
64713;BME280;51140;45.340;5.980;2023-04-01T05:20:00;98237.41;;;7.45;100.00
64713;BME280;51140;45.340;5.980;2023-04-01T05:22:25;98234.53;;;7.53;100.00
64713;BME280;51140;45.340;5.980;2023-04-01T05:24:51;98242.34;;;7.51;100.00
64713;BME280;51140;45.340;5.980;2023-04-01T05:27:16;98268.75;;;7.63;100.00
64713;BME280;51140;45.340;5.980;2023-04-01T05:29:42;98283.50;;;7.61;100.00
64713;BME280;51140;45.340;5.980;2023-04-01T05:32:07;98322.00;;;7.71;100.00
64713;BME280;51140;45.340;5.980;2023-04-01T05:34:32;98322.16;;;7.67;100.00
64713;BME280;51140;45.340;5.980;2023-04-01T05:36:58;98322.47;;;7.58;100.00
64713;BME280;51140;45.340;5.980;2023-04-01T05:39:23;98327.00;;;7.52;100.00
64713;BME280;51140;45.340;5.980;2023-04-01T05:41:49;98338.75;;;7.63;100.00
64713;BME280;51140;45.340;5.980;2023-04-01T05:44:14;98350.22;;;7.79;100.00
64713;BME280;51140;45.340;5.980;2023-04-01T05:46:39;98360.47;;;7.82;100.00
64713;BME280;51140;45.340;5.980;2023-04-01T05:49:05;98361.50;;;7.78;100.00
64713;BME280;51140;45.340;5.980;2023-04-01T05:51:30;98349.66;;;7.71;100.00
64713;BME280;51140;45.340;5.980;2023-04-01T05:53:56;98352.38;;;7.68;100.00
64713;BME280;51140;45.340;5.980;2023-04-01T05:56:21;98342.69;;;7.73;100.00
64713;BME280;51140;45.340;5.980;2023-04-01T05:58:50;98343.13;;;7.84;100.00
64713;BME280;51140;45.340;5.980;2023-04-01T06:01:16;98349.09;;;7.86;100.00
64713;BME280;51140;45.340;5.980;2023-04-01T06:03:41;98362.59;;;7.94;100.00
64713;BME280;51140;45.340;5.980;2023-04-01T06:06:16;98368.69;;;7.93;100.00
64713;BME280;51140;45.340;5.980;2023-04-01T06:08:44;98362.06;;;7.86;100.00
64713;BME280;51140;45.340;5.980;2023-04-01T06:14:17;98369.91;;;7.84;100.00
64713;BME280;51140;45.340;5.980;2023-04-01T06:22:08;98351.38;;;7.94;100.00
64713;BME280;51140;45.340;5.980;2023-04-01T06:25:07;98333.22;;;7.94;100.00
64713;BME280;51140;45.340;5.980;2023-04-01T06:57:49;98348.13;;;8.12;100.00
64713;BME280;51140;45.340;5.980;2023-04-01T07:00:40;98338.56;;;8.12;100.00
64713;BME280;51140;45.340;5.980;2023-04-01T07:03:29;98323.19;;;8.08;100.00
64713;BME280;51140;45.340;5.980;2023-04-01T07:06:02;98319.38;;;8.16;100.00
64713;BME280;51140;45.340;5.980;2023-04-01T07:08:29;98321.59;;;8.49;100.00
64713;BME280;51140;45.340;5.980;2023-04-01T07:11:01;98324.66;;;9.40;100.00
64713;BME280;51140;45.340;5.980;2023-04-01T07:13:33;98265.22;;;9.70;100.00
64713;BME280;51140;45.340;5.980;2023-04-01T07:18:42;98119.63;;;8.95;100.00
64713;BME280;51140;45.340;5.980;2023-04-01T07:21:22;98079.25;;;9.06;100.00
64713;BME280;51140;45.340;5.980;2023-04-01T07:23:49;98045.38;;;9.27;100.00
64713;BME280;51140;45.340;5.980;2023-04-01T07:26:19;98012.50;;;9.26;100.00
64713;BME280;51140;45.340;5.980;2023-04-01T07:28:46;97975.97;;;9.29;100.00
64713;BME280;51140;45.340;5.980;2023-04-01T07:36:54;97926.66;;;9.27;100.00
64713;BME280;51140;45.340;5.980;2023-04-01T07:39:48;97900.00;;;9.57;100.00
64713;BME280;51140;45.340;5.980;2023-04-01T07:42:43;97856.03;;;9.52;100.00
64713;BME280;51140;45.340;5.980;2023-04-01T07:53:36;97752.78;;;9.54;100.00
64713;BME280;51140;45.340;5.980;2023-04-01T07:56:15;97750.78;;;9.43;100.00
64713;BME280;51140;45.340;5.980;2023-04-01T08:07:15;97692.06;;;9.87;100.00
64713;BME280;51140;45.340;5.980;2023-04-01T08:09:51;97662.53;;;9.56;100.00
64713;BME280;51140;45.340;5.980;2023-04-01T08:15:23;97613.25;;;9.23;100.00
64713;BME280;51140;45.340;5.980;2023-04-01T08:28:30;97463.91;;;9.59;100.00
64713;BME280;51140;45.340;5.980;2023-04-01T08:33:30;97403.94;;;9.90;100.00
64713;BME280;51140;45.340;5.980;2023-04-01T08:36:30;97372.94;;;9.73;100.00
64713;BME280;51140;45.340;5.980;2023-04-01T08:39:05;97374.03;;;9.97;100.00
64713;BME280;51140;45.340;5.980;2023-04-01T08:55:25;97288.03;;;10.54;100.00
64713;BME280;51140;45.340;5.980;2023-04-01T09:01:08;97339.41;;;10.38;100.00
64713;BME280;51140;45.340;5.980;2023-04-01T09:06:37;97381.94;;;10.10;100.00
64713;BME280;51140;45.340;5.980;2023-04-01T09:41:29;97184.84;;;12.84;100.00
64713;BME280;51140;45.340;5.980;2023-04-01T09:44:14;97172.72;;;11.65;100.00
64713;BME280;51140;45.340;5.980;2023-04-01T09:55:28;97231.59;;;10.67;100.00
64713;BME280;51140;45.340;5.980;2023-04-01T10:45:57;96468.72;;;16.10;100.00
64713;BME280;51140;45.340;5.980;2023-04-01T11:03:54;96471.50;;;16.08;100.00
64713;BME280;51140;45.340;5.980;2023-04-01T11:12:24;96463.16;;;16.13;100.00
64713;BME280;51140;45.340;5.980;2023-04-01T11:23:54;96503.22;;;14.71;100.00
64713;BME280;51140;45.340;5.980;2023-04-01T11:29:18;96518.13;;;13.17;100.00
64713;BME280;51140;45.340;5.980;2023-04-01T11:45:32;96515.34;;;11.76;100.00
64713;BME280;51140;45.340;5.980;2023-04-01T11:56:14;96502.41;;;12.68;100.00
64713;BME280;51140;45.340;5.980;2023-04-01T12:04:36;96436.66;;;14.91;100.00
64713;BME280;51140;45.340;5.980;2023-04-01T12:09:59;96444.75;;;14.43;100.00
64713;BME280;51140;45.340;5.980;2023-04-01T12:12:40;96450.47;;;14.19;100.00
64713;BME280;51140;45.340;5.980;2023-04-01T12:15:42;96449.63;;;14.19;100.00
64713;BME280;51140;45.340;5.980;2023-04-01T12:20:57;96441.94;;;14.07;100.00
64713;BME280;51140;45.340;5.980;2023-04-01T12:26:30;96418.44;;;14.25;100.00
64713;BME280;51140;45.340;5.980;2023-04-01T12:34:57;96377.91;;;15.02;100.00
64713;BME280;51140;45.340;5.980;2023-04-01T12:37:46;96344.72;;;15.54;100.00
64713;BME280;51140;45.340;5.980;2023-04-01T12:59:54;96353.03;;;15.24;100.00
64713;BME280;51140;45.340;5.980;2023-04-01T13:16:19;96448.69;;;14.84;100.00
64713;BME280;51140;45.340;5.980;2023-04-01T13:18:56;96449.78;;;15.09;100.00
64713;BME280;51140;45.340;5.980;2023-04-01T13:26:56;96439.88;;;14.85;100.00
64713;BME280;51140;45.340;5.980;2023-04-01T13:29:38;96461.44;;;14.69;100.00
64713;BME280;51140;45.340;5.980;2023-04-01T13:35:17;96469.81;;;15.28;100.00
64713;BME280;51140;45.340;5.980;2023-04-01T13:37:55;96487.66;;;15.24;100.00
64713;BME280;51140;45.340;5.980;2023-04-01T13:40:39;96467.31;;;15.09;100.00
64713;BME280;51140;45.340;5.980;2023-04-01T13:43:12;96486.00;;;15.23;100.00
64713;BME280;51140;45.340;5.980;2023-04-01T14:00:22;96720.00;;;15.91;100.00
64713;BME280;51140;45.340;5.980;2023-04-01T14:08:55;96857.91;;;15.58;100.00
64713;BME280;51140;45.340;5.980;2023-04-01T14:11:56;96872.53;;;15.51;100.00
64713;BME280;51140;45.340;5.980;2023-04-01T14:15:01;96853.50;;;15.30;100.00
64713;BME280;51140;45.340;5.980;2023-04-01T14:17:54;96872.97;;;14.98;100.00
64713;BME280;51140;45.340;5.980;2023-04-01T14:20:27;96875.56;;;14.79;100.00
64713;BME280;51140;45.340;5.980;2023-04-01T14:28:44;96872.09;;;14.19;100.00
64713;BME280;51140;45.340;5.980;2023-04-01T14:48:13;96735.97;;;13.48;100.00
64713;BME280;51140;45.340;5.980;2023-04-01T14:50:48;96731.75;;;13.27;100.00
64713;BME280;51140;45.340;5.980;2023-04-01T14:56:08;96636.97;;;13.13;100.00
64713;BME280;51140;45.340;5.980;2023-04-01T14:58:46;96637.47;;;12.77;100.00
64713;BME280;51140;45.340;5.980;2023-04-01T15:15:16;96662.22;;;11.22;100.00
64713;BME280;51140;45.340;5.980;2023-04-01T15:23:42;96501.81;;;10.42;100.00
64713;BME280;51140;45.340;5.980;2023-04-01T15:26:21;96478.84;;;10.24;100.00
64713;BME280;51140;45.340;5.980;2023-04-01T15:28:57;96444.75;;;10.16;100.00
64713;BME280;51140;45.340;5.980;2023-04-01T15:37:02;96397.91;;;10.05;100.00
64713;BME280;51140;45.340;5.980;2023-04-01T15:39:54;96403.59;;;10.10;100.00
64713;BME280;51140;45.340;5.980;2023-04-01T15:42:39;96408.06;;;9.97;100.00
64713;BME280;51140;45.340;5.980;2023-04-01T15:50:48;96416.84;;;10.07;100.00
64713;BME280;51140;45.340;5.980;2023-04-01T15:56:45;96423.44;;;10.00;100.00
64713;BME280;51140;45.340;5.980;2023-04-01T15:59:21;96436.44;;;9.89;100.00
64713;BME280;51140;45.340;5.980;2023-04-01T16:02:11;96430.06;;;9.93;100.00
64713;BME280;51140;45.340;5.980;2023-04-01T16:04:49;96425.66;;;9.82;100.00
64713;BME280;51140;45.340;5.980;2023-04-01T16:21:14;96341.84;;;9.56;100.00
64713;BME280;51140;45.340;5.980;2023-04-01T16:23:50;96341.59;;;9.59;100.00
64713;BME280;51140;45.340;5.980;2023-04-01T16:26:28;96334.56;;;9.61;100.00
64713;BME280;51140;45.340;5.980;2023-04-01T16:29:17;96370.13;;;9.61;100.00
64713;BME280;51140;45.340;5.980;2023-04-01T16:31:59;96402.47;;;9.57;100.00
64713;BME280;51140;45.340;5.980;2023-04-01T16:35:24;96421.66;;;9.32;100.00
64713;BME280;51140;45.340;5.980;2023-04-01T16:37:50;96451.69;;;9.12;100.00
64713;BME280;51140;45.340;5.980;2023-04-01T16:42:55;96488.88;;;9.13;100.00
64713;BME280;51140;45.340;5.980;2023-04-01T16:45:57;96511.59;;;8.98;100.00
64713;BME280;51140;45.340;5.980;2023-04-01T16:48:49;96538.34;;;8.87;100.00
64713;BME280;51140;45.340;5.980;2023-04-01T16:51:18;96504.09;;;8.82;100.00
64713;BME280;51140;45.340;5.980;2023-04-01T16:53:49;96526.63;;;8.69;100.00
64713;BME280;51140;45.340;5.980;2023-04-01T16:56:26;96567.97;;;8.59;100.00
64713;BME280;51140;45.340;5.980;2023-04-01T16:59:03;96598.59;;;8.54;100.00
64713;BME280;51140;45.340;5.980;2023-04-01T17:15:34;96885.41;;;8.33;100.00
64713;BME280;51140;45.340;5.980;2023-04-01T17:21:02;97007.53;;;8.30;100.00
64713;BME280;51140;45.340;5.980;2023-04-01T17:23:50;97038.13;;;8.25;100.00
64713;BME280;51140;45.340;5.980;2023-04-01T17:29:05;97139.66;;;8.18;100.00
64713;BME280;51140;45.340;5.980;2023-04-01T17:32:02;97191.72;;;8.15;100.00
64713;BME280;51140;45.340;5.980;2023-04-01T17:40:17;97342.84;;;8.03;100.00
64713;BME280;51140;45.340;5.980;2023-04-01T17:43:16;97400.75;;;8.04;100.00
64713;BME280;51140;45.340;5.980;2023-04-01T17:50:48;97480.94;;;8.24;100.00
64713;BME280;51140;45.340;5.980;2023-04-01T17:58:59;97539.97;;;8.03;100.00
64713;BME280;51140;45.340;5.980;2023-04-01T18:01:43;97560.41;;;8.09;100.00
64713;BME280;51140;45.340;5.980;2023-04-01T18:12:05;97535.34;;;8.26;100.00
64713;BME280;51140;45.340;5.980;2023-04-01T18:15:11;97555.59;;;8.19;100.00
64713;BME280;51140;45.340;5.980;2023-04-01T18:25:45;97616.25;;;7.46;100.00
64713;BME280;51140;45.340;5.980;2023-04-01T18:31:05;97599.91;;;7.27;100.00
64713;BME280;51140;45.340;5.980;2023-04-01T18:38:57;97563.09;;;7.01;100.00
64713;BME280;51140;45.340;5.980;2023-04-01T18:49:30;97515.13;;;7.11;100.00
64713;BME280;51140;45.340;5.980;2023-04-01T18:52:04;97522.22;;;7.08;100.00
64713;BME280;51140;45.340;5.980;2023-04-01T19:00:17;97592.25;;;7.42;100.00
64713;BME280;51140;45.340;5.980;2023-04-01T19:02:56;97619.91;;;7.42;100.00
64713;BME280;51140;45.340;5.980;2023-04-01T19:05:30;97629.13;;;7.47;100.00
64713;BME280;51140;45.340;5.980;2023-04-01T19:40:52;97784.25;;;6.97;100.00
64713;BME280;51140;45.340;5.980;2023-04-01T19:46:25;97832.44;;;7.01;100.00
64713;BME280;51140;45.340;5.980;2023-04-01T19:49:13;97851.50;;;7.19;100.00
64713;BME280;51140;45.340;5.980;2023-04-01T19:52:01;97857.09;;;7.10;100.00
64713;BME280;51140;45.340;5.980;2023-04-01T19:59:51;97895.56;;;6.77;100.00
64713;BME280;51140;45.340;5.980;2023-04-01T20:16:59;97952.59;;;6.75;100.00
64713;BME280;51140;45.340;5.980;2023-04-01T20:19:29;97951.69;;;6.54;100.00
64713;BME280;51140;45.340;5.980;2023-04-01T20:21:59;97954.47;;;6.50;100.00
64713;BME280;51140;45.340;5.980;2023-04-01T20:24:45;97986.97;;;6.57;100.00
64713;BME280;51140;45.340;5.980;2023-04-01T20:27:22;97995.75;;;6.53;100.00
64713;BME280;51140;45.340;5.980;2023-04-01T20:41:13;98035.34;;;6.55;100.00
64713;BME280;51140;45.340;5.980;2023-04-01T20:43:52;98043.66;;;6.63;100.00
64713;BME280;51140;45.340;5.980;2023-04-01T20:46:42;98067.75;;;6.65;100.00
64713;BME280;51140;45.340;5.980;2023-04-01T20:57:21;98206.88;;;6.83;100.00
64713;BME280;51140;45.340;5.980;2023-04-01T21:05:45;98230.09;;;7.10;100.00
64713;BME280;51140;45.340;5.980;2023-04-01T21:11:23;98226.53;;;7.12;100.00
64713;BME280;51140;45.340;5.980;2023-04-01T21:16:44;98209.44;;;7.32;100.00
64713;BME280;51140;45.340;5.980;2023-04-01T21:19:22;98196.66;;;7.27;100.00
64713;BME280;51140;45.340;5.980;2023-04-01T21:22:06;98172.97;;;7.13;100.00
64713;BME280;51140;45.340;5.980;2023-04-01T21:27:46;98146.81;;;6.97;100.00
64713;BME280;51140;45.340;5.980;2023-04-01T21:30:43;98149.22;;;7.02;100.00
64713;BME280;51140;45.340;5.980;2023-04-01T21:48:19;98186.47;;;7.22;100.00
64713;BME280;51140;45.340;5.980;2023-04-01T22:07:21;98136.16;;;7.05;100.00
64713;BME280;51140;45.340;5.980;2023-04-01T22:10:09;98123.34;;;7.02;100.00
64713;BME280;51140;45.340;5.980;2023-04-01T22:12:54;98118.38;;;6.96;100.00
64713;BME280;51140;45.340;5.980;2023-04-01T22:23:39;98112.47;;;6.92;100.00
64713;BME280;51140;45.340;5.980;2023-04-01T22:26:29;98114.00;;;6.98;100.00
64713;BME280;51140;45.340;5.980;2023-04-01T22:34:55;98113.44;;;6.89;100.00
64713;BME280;51140;45.340;5.980;2023-04-01T22:42:44;98122.53;;;6.76;100.00
64713;BME280;51140;45.340;5.980;2023-04-01T22:47:51;98128.91;;;6.68;100.00
64713;BME280;51140;45.340;5.980;2023-04-01T22:53:48;98140.78;;;6.73;100.00
64713;BME280;51140;45.340;5.980;2023-04-01T22:56:26;98159.69;;;6.75;100.00
64713;BME280;51140;45.340;5.980;2023-04-01T22:59:19;98180.16;;;6.83;100.00
64713;BME280;51140;45.340;5.980;2023-04-01T23:01:53;98200.16;;;6.78;100.00
64713;BME280;51140;45.340;5.980;2023-04-01T23:04:24;98217.38;;;6.79;100.00
64713;BME280;51140;45.340;5.980;2023-04-01T23:06:56;98107.13;;;6.73;100.00
64713;BME280;51140;45.340;5.980;2023-04-01T23:09:31;98140.09;;;6.68;100.00
64713;BME280;51140;45.340;5.980;2023-04-01T23:12:02;98180.50;;;6.72;100.00
64713;BME280;51140;45.340;5.980;2023-04-01T23:14:47;98207.91;;;6.78;100.00
64713;BME280;51140;45.340;5.980;2023-04-01T23:17:21;98246.41;;;6.88;100.00
64713;BME280;51140;45.340;5.980;2023-04-01T23:19:53;98266.91;;;6.95;100.00
64713;BME280;51140;45.340;5.980;2023-04-01T23:25:43;98293.19;;;6.84;100.00
64713;BME280;51140;45.340;5.980;2023-04-01T23:38:25;98307.81;;;6.85;100.00
64713;BME280;51140;45.340;5.980;2023-04-01T23:40:52;98316.09;;;6.95;100.00
64713;BME280;51140;45.340;5.980;2023-04-01T23:43:33;98316.16;;;6.93;100.00
64713;BME280;51140;45.340;5.980;2023-04-01T23:46:02;98317.28;;;6.86;100.00
64713;BME280;51140;45.340;5.980;2023-04-01T23:48:36;98317.13;;;6.90;100.00
64713;BME280;51140;45.340;5.980;2023-04-01T23:51:03;98331.06;;;6.86;100.00
64713;BME280;51140;45.340;5.980;2023-04-01T23:53:34;98333.44;;;6.93;100.00
64713;BME280;51140;45.340;5.980;2023-04-01T23:56:02;98324.38;;;6.79;100.00
64713;BME280;51140;45.340;5.980;2023-04-01T23:58:42;98329.44;;;6.84;100.00
